sensor_id;sensor_type;location;lat;lon;timestamp;pressure;altitude;pressure_sealevel;temperature;humidity
16834;BME280;8533;48.426;10.868;2022-08-01T00:02:21;96270.51;;;20.40;65.02
16834;BME280;8533;48.426;10.868;2022-08-01T00:04:49;96274.79;;;20.38;65.02
16834;BME280;8533;48.426;10.868;2022-08-01T00:07:16;96276.22;;;20.33;65.33
16834;BME280;8533;48.426;10.868;2022-08-01T00:09:44;96285.38;;;20.27;65.52
16834;BME280;8533;48.426;10.868;2022-08-01T00:12:11;96283.16;;;20.20;65.65
16834;BME280;8533;48.426;10.868;2022-08-01T00:14:38;96281.13;;;20.17;65.86
16834;BME280;8533;48.426;10.868;2022-08-01T00:17:06;96279.66;;;20.11;66.08
16834;BME280;8533;48.426;10.868;2022-08-01T00:19:33;96278.11;;;20.10;66.09
16834;BME280;8533;48.426;10.868;2022-08-01T00:22:01;96283.52;;;20.05;66.31
16834;BME280;8533;48.426;10.868;2022-08-01T00:24:28;96285.15;;;20.04;66.33
16834;BME280;8533;48.426;10.868;2022-08-01T00:26:56;96286.06;;;19.99;66.40
16834;BME280;8533;48.426;10.868;2022-08-01T00:29:23;96287.44;;;19.97;66.41
16834;BME280;8533;48.426;10.868;2022-08-01T00:31:50;96289.68;;;19.92;66.64
16834;BME280;8533;48.426;10.868;2022-08-01T00:34:18;96291.30;;;19.91;66.67
16834;BME280;8533;48.426;10.868;2022-08-01T00:36:46;96294.50;;;19.90;66.65
16834;BME280;8533;48.426;10.868;2022-08-01T00:39:13;96289.77;;;19.87;66.77
16834;BME280;8533;48.426;10.868;2022-08-01T00:41:41;96288.23;;;19.86;67.14
16834;BME280;8533;48.426;10.868;2022-08-01T00:44:08;96293.30;;;19.85;67.06
16834;BME280;8533;48.426;10.868;2022-08-01T00:46:35;96289.06;;;19.84;67.11
16834;BME280;8533;48.426;10.868;2022-08-01T00:49:03;96291.27;;;19.79;67.18
16834;BME280;8533;48.426;10.868;2022-08-01T00:51:30;96291.11;;;19.76;67.24
16834;BME280;8533;48.426;10.868;2022-08-01T00:54:00;96287.17;;;19.73;67.17
16834;BME280;8533;48.426;10.868;2022-08-01T00:56:27;96285.34;;;19.71;67.09
16834;BME280;8533;48.426;10.868;2022-08-01T00:58:55;96281.45;;;19.69;67.08
16834;BME280;8533;48.426;10.868;2022-08-01T01:01:24;96282.52;;;19.68;66.86
16834;BME280;8533;48.426;10.868;2022-08-01T01:03:52;96274.31;;;19.67;67.06
16834;BME280;8533;48.426;10.868;2022-08-01T01:09:03;96276.18;;;19.66;66.78
16834;BME280;8533;48.426;10.868;2022-08-01T01:11:40;96279.13;;;19.65;66.58
16834;BME280;8533;48.426;10.868;2022-08-01T01:14:06;96283.94;;;19.63;66.59
16834;BME280;8533;48.426;10.868;2022-08-01T01:16:34;96281.07;;;19.62;66.38
16834;BME280;8533;48.426;10.868;2022-08-01T01:19:04;96281.61;;;19.61;66.42
16834;BME280;8533;48.426;10.868;2022-08-01T01:27:18;96294.55;;;19.52;66.58
16834;BME280;8533;48.426;10.868;2022-08-01T01:29:50;96291.16;;;19.49;66.84
16834;BME280;8533;48.426;10.868;2022-08-01T01:34:58;96285.10;;;19.46;66.85
16834;BME280;8533;48.426;10.868;2022-08-01T01:37:26;96288.34;;;19.42;67.07
16834;BME280;8533;48.426;10.868;2022-08-01T01:39:54;96287.17;;;19.35;67.55
16834;BME280;8533;48.426;10.868;2022-08-01T01:42:24;96286.50;;;19.29;67.42
16834;BME280;8533;48.426;10.868;2022-08-01T01:44:52;96280.45;;;19.26;67.60
16834;BME280;8533;48.426;10.868;2022-08-01T01:47:22;96280.31;;;19.20;68.03
16834;BME280;8533;48.426;10.868;2022-08-01T01:49:51;96281.68;;;19.18;67.83
16834;BME280;8533;48.426;10.868;2022-08-01T01:54:49;96284.62;;;19.16;67.66
16834;BME280;8533;48.426;10.868;2022-08-01T01:57:18;96285.52;;;19.12;67.65
16834;BME280;8533;48.426;10.868;2022-08-01T01:59:46;96284.73;;;19.11;67.75
16834;BME280;8533;48.426;10.868;2022-08-01T02:02:15;96285.02;;;19.10;68.33
16834;BME280;8533;48.426;10.868;2022-08-01T02:04:45;96285.67;;;19.04;68.40
16834;BME280;8533;48.426;10.868;2022-08-01T02:07:19;96280.66;;;19.02;67.97
16834;BME280;8533;48.426;10.868;2022-08-01T02:09:44;96278.80;;;19.03;67.35
16834;BME280;8533;48.426;10.868;2022-08-01T02:12:13;96283.48;;;19.06;66.88
16834;BME280;8533;48.426;10.868;2022-08-01T02:14:43;96281.87;;;19.08;66.63
16834;BME280;8533;48.426;10.868;2022-08-01T02:17:15;96281.83;;;19.10;67.03
16834;BME280;8533;48.426;10.868;2022-08-01T02:19:41;96286.06;;;19.11;66.62
16834;BME280;8533;48.426;10.868;2022-08-01T02:22:16;96286.06;;;19.11;66.47
16834;BME280;8533;48.426;10.868;2022-08-01T02:25:02;96290.33;;;19.10;66.65
16834;BME280;8533;48.426;10.868;2022-08-01T02:27:42;96283.70;;;19.10;66.53
16834;BME280;8533;48.426;10.868;2022-08-01T02:30:12;96290.62;;;19.08;66.21
16834;BME280;8533;48.426;10.868;2022-08-01T02:32:53;96292.19;;;19.09;65.73
16834;BME280;8533;48.426;10.868;2022-08-01T02:35:20;96298.82;;;19.09;66.04
16834;BME280;8533;48.426;10.868;2022-08-01T02:37:48;96297.50;;;19.09;66.10
16834;BME280;8533;48.426;10.868;2022-08-01T02:40:17;96303.63;;;19.07;66.30
16834;BME280;8533;48.426;10.868;2022-08-01T02:42:47;96294.95;;;19.04;66.29
16834;BME280;8533;48.426;10.868;2022-08-01T02:45:16;96298.97;;;19.01;66.46
16834;BME280;8533;48.426;10.868;2022-08-01T02:47:45;96295.53;;;19.01;66.20
16834;BME280;8533;48.426;10.868;2022-08-01T02:50:14;96299.01;;;18.99;66.26
16834;BME280;8533;48.426;10.868;2022-08-01T02:52:45;96296.64;;;18.97;65.79
16834;BME280;8533;48.426;10.868;2022-08-01T02:55:13;96296.17;;;18.95;65.92
16834;BME280;8533;48.426;10.868;2022-08-01T02:57:43;96301.52;;;18.93;65.94
16834;BME280;8533;48.426;10.868;2022-08-01T03:00:11;96301.80;;;18.91;65.83
16834;BME280;8533;48.426;10.868;2022-08-01T03:02:40;96304.95;;;18.93;65.39
16834;BME280;8533;48.426;10.868;2022-08-01T03:05:09;96306.31;;;18.91;65.40
16834;BME280;8533;48.426;10.868;2022-08-01T03:07:37;96307.89;;;18.92;65.54
16834;BME280;8533;48.426;10.868;2022-08-01T03:10:06;96305.59;;;18.88;65.52
16834;BME280;8533;48.426;10.868;2022-08-01T03:12:34;96312.26;;;18.85;66.21
16834;BME280;8533;48.426;10.868;2022-08-01T03:15:04;96313.88;;;18.84;65.82
16834;BME280;8533;48.426;10.868;2022-08-01T03:17:34;96312.01;;;18.84;65.43
16834;BME280;8533;48.426;10.868;2022-08-01T03:20:03;96316.56;;;18.81;66.14
16834;BME280;8533;48.426;10.868;2022-08-01T03:22:32;96316.34;;;18.80;66.24
16834;BME280;8533;48.426;10.868;2022-08-01T03:25:02;96319.27;;;18.79;66.34
16834;BME280;8533;48.426;10.868;2022-08-01T03:27:30;96317.45;;;18.77;66.54
16834;BME280;8533;48.426;10.868;2022-08-01T03:29:58;96318.88;;;18.72;66.38
16834;BME280;8533;48.426;10.868;2022-08-01T03:32:28;96325.25;;;18.71;66.41
16834;BME280;8533;48.426;10.868;2022-08-01T03:34:57;96325.31;;;18.65;66.51
16834;BME280;8533;48.426;10.868;2022-08-01T03:37:27;96324.59;;;18.62;66.50
16834;BME280;8533;48.426;10.868;2022-08-01T03:40:07;96326.48;;;18.59;66.71
16834;BME280;8533;48.426;10.868;2022-08-01T03:42:35;96330.78;;;18.55;67.34
16834;BME280;8533;48.426;10.868;2022-08-01T03:45:07;96331.34;;;18.52;67.00
16834;BME280;8533;48.426;10.868;2022-08-01T03:47:36;96327.13;;;18.51;67.29
16834;BME280;8533;48.426;10.868;2022-08-01T03:50:06;96330.06;;;18.50;67.53
16834;BME280;8533;48.426;10.868;2022-08-01T03:52:36;96333.02;;;18.48;67.51
16834;BME280;8533;48.426;10.868;2022-08-01T03:55:06;96337.81;;;18.46;67.64
16834;BME280;8533;48.426;10.868;2022-08-01T03:57:34;96344.19;;;18.45;67.47
16834;BME280;8533;48.426;10.868;2022-08-01T04:00:04;96338.38;;;18.43;67.54
16834;BME280;8533;48.426;10.868;2022-08-01T04:02:36;96342.17;;;18.40;67.79
16834;BME280;8533;48.426;10.868;2022-08-01T04:05:04;96345.83;;;18.41;68.45
16834;BME280;8533;48.426;10.868;2022-08-01T04:07:33;96350.39;;;18.38;68.32
16834;BME280;8533;48.426;10.868;2022-08-01T04:10:03;96348.28;;;18.38;68.22
16834;BME280;8533;48.426;10.868;2022-08-01T04:12:30;96346.73;;;18.34;68.54
16834;BME280;8533;48.426;10.868;2022-08-01T04:14:58;96349.92;;;18.34;68.43
16834;BME280;8533;48.426;10.868;2022-08-01T04:17:26;96349.92;;;18.34;68.56
16834;BME280;8533;48.426;10.868;2022-08-01T04:19:53;96352.88;;;18.32;68.60
16834;BME280;8533;48.426;10.868;2022-08-01T04:22:21;96353.11;;;18.33;68.67
16834;BME280;8533;48.426;10.868;2022-08-01T04:24:51;96356.52;;;18.36;68.64
16834;BME280;8533;48.426;10.868;2022-08-01T04:27:22;96357.84;;;18.36;68.63
16834;BME280;8533;48.426;10.868;2022-08-01T04:29:51;96359.50;;;18.32;68.57
16834;BME280;8533;48.426;10.868;2022-08-01T04:32:21;96353.42;;;18.32;69.04
16834;BME280;8533;48.426;10.868;2022-08-01T04:34:50;96360.04;;;18.32;69.10
16834;BME280;8533;48.426;10.868;2022-08-01T04:37:18;96365.81;;;18.34;69.16
16834;BME280;8533;48.426;10.868;2022-08-01T04:39:47;96366.85;;;18.35;69.23
16834;BME280;8533;48.426;10.868;2022-08-01T04:42:15;96368.15;;;18.38;69.13
16834;BME280;8533;48.426;10.868;2022-08-01T04:44:43;96369.73;;;18.39;68.74
16834;BME280;8533;48.426;10.868;2022-08-01T04:47:11;96365.95;;;18.42;68.84
16834;BME280;8533;48.426;10.868;2022-08-01T04:49:40;96373.33;;;18.45;68.86
16834;BME280;8533;48.426;10.868;2022-08-01T04:52:08;96373.52;;;18.49;68.77
16834;BME280;8533;48.426;10.868;2022-08-01T04:54:36;96376.39;;;18.52;68.83
16834;BME280;8533;48.426;10.868;2022-08-01T04:57:04;96377.15;;;18.55;69.11
16834;BME280;8533;48.426;10.868;2022-08-01T04:59:34;96379.20;;;18.61;68.26
16834;BME280;8533;48.426;10.868;2022-08-01T05:02:08;96378.91;;;18.62;68.39
16834;BME280;8533;48.426;10.868;2022-08-01T05:04:37;96376.42;;;18.68;68.25
16834;BME280;8533;48.426;10.868;2022-08-01T05:07:06;96381.34;;;18.75;68.28
16834;BME280;8533;48.426;10.868;2022-08-01T05:09:34;96386.58;;;18.80;67.90
16834;BME280;8533;48.426;10.868;2022-08-01T05:12:05;96386.23;;;18.84;68.12
16834;BME280;8533;48.426;10.868;2022-08-01T05:14:33;96384.88;;;18.87;68.24
16834;BME280;8533;48.426;10.868;2022-08-01T05:17:01;96385.06;;;18.90;67.57
16834;BME280;8533;48.426;10.868;2022-08-01T05:19:32;96385.31;;;18.91;67.58
16834;BME280;8533;48.426;10.868;2022-08-01T05:22:03;96388.37;;;18.98;67.44
16834;BME280;8533;48.426;10.868;2022-08-01T05:24:32;96388.83;;;19.03;67.59
16834;BME280;8533;48.426;10.868;2022-08-01T05:27:00;96390.06;;;19.08;67.52
16834;BME280;8533;48.426;10.868;2022-08-01T05:29:28;96391.59;;;19.12;67.11
16834;BME280;8533;48.426;10.868;2022-08-01T05:31:56;96395.22;;;19.16;67.03
16834;BME280;8533;48.426;10.868;2022-08-01T05:34:25;96397.30;;;19.19;67.35
16834;BME280;8533;48.426;10.868;2022-08-01T05:36:53;96398.02;;;19.22;67.34
16834;BME280;8533;48.426;10.868;2022-08-01T05:39:20;96393.75;;;19.23;67.31
16834;BME280;8533;48.426;10.868;2022-08-01T05:41:48;96399.77;;;19.29;67.31
16834;BME280;8533;48.426;10.868;2022-08-01T05:44:15;96400.46;;;19.34;66.50
16834;BME280;8533;48.426;10.868;2022-08-01T05:46:43;96397.77;;;19.37;66.39
16834;BME280;8533;48.426;10.868;2022-08-01T05:49:10;96401.39;;;19.41;66.33
16834;BME280;8533;48.426;10.868;2022-08-01T05:51:37;96407.70;;;19.45;66.32
16834;BME280;8533;48.426;10.868;2022-08-01T05:54:05;96413.22;;;19.49;66.21
16834;BME280;8533;48.426;10.868;2022-08-01T05:56:33;96406.83;;;19.50;66.05
16834;BME280;8533;48.426;10.868;2022-08-01T05:59:01;96410.66;;;19.57;66.54
16834;BME280;8533;48.426;10.868;2022-08-01T06:01:28;96405.20;;;19.65;66.20
16834;BME280;8533;48.426;10.868;2022-08-01T06:03:56;96406.98;;;19.69;65.97
16834;BME280;8533;48.426;10.868;2022-08-01T06:06:23;96402.98;;;19.83;65.91
16834;BME280;8533;48.426;10.868;2022-08-01T06:08:51;96413.88;;;19.95;64.91
16834;BME280;8533;48.426;10.868;2022-08-01T06:11:18;96415.48;;;20.07;64.70
16834;BME280;8533;48.426;10.868;2022-08-01T06:13:46;96415.16;;;20.23;63.80
16834;BME280;8533;48.426;10.868;2022-08-01T06:16:13;96417.50;;;20.38;63.68
16834;BME280;8533;48.426;10.868;2022-08-01T06:18:41;96420.89;;;20.52;62.45
16834;BME280;8533;48.426;10.868;2022-08-01T06:21:08;96417.41;;;20.65;61.78
16834;BME280;8533;48.426;10.868;2022-08-01T06:23:35;96424.83;;;20.77;61.81
16834;BME280;8533;48.426;10.868;2022-08-01T06:26:03;96426.22;;;20.85;61.58
16834;BME280;8533;48.426;10.868;2022-08-01T06:28:31;96421.73;;;20.94;61.25
16834;BME280;8533;48.426;10.868;2022-08-01T06:30:58;96424.64;;;21.07;60.99
16834;BME280;8533;48.426;10.868;2022-08-01T06:33:26;96417.85;;;21.12;61.25
16834;BME280;8533;48.426;10.868;2022-08-01T06:35:54;96427.78;;;21.20;61.33
16834;BME280;8533;48.426;10.868;2022-08-01T06:38:21;96422.85;;;21.36;60.77
16834;BME280;8533;48.426;10.868;2022-08-01T06:40:50;96417.97;;;21.49;60.47
16834;BME280;8533;48.426;10.868;2022-08-01T06:43:18;96418.66;;;21.63;59.92
16834;BME280;8533;48.426;10.868;2022-08-01T06:45:45;96416.48;;;21.74;60.02
16834;BME280;8533;48.426;10.868;2022-08-01T06:48:13;96419.80;;;21.99;59.75
16834;BME280;8533;48.426;10.868;2022-08-01T06:50:40;96425.87;;;22.19;59.42
16834;BME280;8533;48.426;10.868;2022-08-01T06:53:08;96416.39;;;22.24;58.56
16834;BME280;8533;48.426;10.868;2022-08-01T06:55:35;96414.90;;;22.55;58.35
16834;BME280;8533;48.426;10.868;2022-08-01T06:58:02;96416.53;;;22.71;57.60
16834;BME280;8533;48.426;10.868;2022-08-01T07:00:30;96409.38;;;23.03;57.38
16834;BME280;8533;48.426;10.868;2022-08-01T07:02:58;96411.95;;;23.14;56.84
16834;BME280;8533;48.426;10.868;2022-08-01T07:05:26;96411.03;;;23.34;56.56
16834;BME280;8533;48.426;10.868;2022-08-01T07:07:53;96411.45;;;23.44;56.25
16834;BME280;8533;48.426;10.868;2022-08-01T07:10:21;96411.91;;;23.55;55.93
16834;BME280;8533;48.426;10.868;2022-08-01T07:12:49;96410.39;;;23.60;56.21
16834;BME280;8533;48.426;10.868;2022-08-01T07:15:16;96416.30;;;23.89;54.77
16834;BME280;8533;48.426;10.868;2022-08-01T07:17:45;96407.17;;;24.05;54.16
16834;BME280;8533;48.426;10.868;2022-08-01T07:20:13;96414.82;;;23.85;54.50
16834;BME280;8533;48.426;10.868;2022-08-01T07:22:40;96416.09;;;24.09;53.96
16834;BME280;8533;48.426;10.868;2022-08-01T07:25:08;96409.71;;;23.86;55.11
16834;BME280;8533;48.426;10.868;2022-08-01T07:27:36;96418.73;;;24.03;54.33
16834;BME280;8533;48.426;10.868;2022-08-01T07:30:05;96410.02;;;24.29;53.74
16834;BME280;8533;48.426;10.868;2022-08-01T07:32:33;96409.91;;;24.52;52.87
16834;BME280;8533;48.426;10.868;2022-08-01T07:35:02;96408.73;;;24.62;52.88
16834;BME280;8533;48.426;10.868;2022-08-01T07:37:29;96409.02;;;24.81;53.12
16834;BME280;8533;48.426;10.868;2022-08-01T07:39:57;96410.40;;;24.87;52.39
16834;BME280;8533;48.426;10.868;2022-08-01T07:42:24;96408.25;;;25.14;51.98
16834;BME280;8533;48.426;10.868;2022-08-01T07:44:51;96406.85;;;25.28;50.98
16834;BME280;8533;48.426;10.868;2022-08-01T07:47:26;96411.75;;;25.38;50.81
16834;BME280;8533;48.426;10.868;2022-08-01T07:49:58;96405.74;;;25.47;51.25
16834;BME280;8533;48.426;10.868;2022-08-01T07:52:22;96405.80;;;25.60;51.28
16834;BME280;8533;48.426;10.868;2022-08-01T07:54:49;96394.73;;;25.86;50.35
16834;BME280;8533;48.426;10.868;2022-08-01T07:57:17;96396.37;;;25.96;50.33
16834;BME280;8533;48.426;10.868;2022-08-01T07:59:44;96404.53;;;26.06;49.69
16834;BME280;8533;48.426;10.868;2022-08-01T08:02:12;96401.48;;;26.19;49.50
16834;BME280;8533;48.426;10.868;2022-08-01T08:04:40;96404.17;;;26.32;49.25
16834;BME280;8533;48.426;10.868;2022-08-01T08:07:07;96399.72;;;26.64;48.47
16834;BME280;8533;48.426;10.868;2022-08-01T08:09:35;96400.12;;;26.72;48.09
16834;BME280;8533;48.426;10.868;2022-08-01T08:12:02;96395.28;;;26.83;47.57
16834;BME280;8533;48.426;10.868;2022-08-01T08:14:30;96391.47;;;26.56;47.95
16834;BME280;8533;48.426;10.868;2022-08-01T08:16:57;96390.13;;;26.56;48.25
16834;BME280;8533;48.426;10.868;2022-08-01T08:19:25;96394.16;;;26.78;48.20
16834;BME280;8533;48.426;10.868;2022-08-01T08:21:52;96391.69;;;26.91;47.51
16834;BME280;8533;48.426;10.868;2022-08-01T08:24:19;96390.67;;;27.12;46.94
16834;BME280;8533;48.426;10.868;2022-08-01T08:26:48;96383.67;;;27.01;46.35
16834;BME280;8533;48.426;10.868;2022-08-01T08:29:16;96392.73;;;27.03;46.72
16834;BME280;8533;48.426;10.868;2022-08-01T08:31:44;96388.60;;;27.37;46.33
16834;BME280;8533;48.426;10.868;2022-08-01T08:34:11;96389.38;;;27.53;45.91
16834;BME280;8533;48.426;10.868;2022-08-01T08:36:39;96377.46;;;27.76;45.18
16834;BME280;8533;48.426;10.868;2022-08-01T08:39:07;96382.91;;;28.14;44.11
16834;BME280;8533;48.426;10.868;2022-08-01T08:41:34;96388.65;;;28.03;43.99
16834;BME280;8533;48.426;10.868;2022-08-01T08:44:04;96381.77;;;28.40;43.30
16834;BME280;8533;48.426;10.868;2022-08-01T08:46:33;96383.40;;;28.74;41.51
16834;BME280;8533;48.426;10.868;2022-08-01T08:49:02;96375.41;;;28.29;43.34
16834;BME280;8533;48.426;10.868;2022-08-01T08:51:34;96378.58;;;28.64;42.53
16834;BME280;8533;48.426;10.868;2022-08-01T08:54:03;96381.77;;;28.89;42.13
16834;BME280;8533;48.426;10.868;2022-08-01T08:56:31;96380.09;;;28.52;42.34
16834;BME280;8533;48.426;10.868;2022-08-01T08:59:01;96378.51;;;28.31;42.34
16834;BME280;8533;48.426;10.868;2022-08-01T09:01:31;96381.92;;;28.67;41.64
16834;BME280;8533;48.426;10.868;2022-08-01T09:03:59;96384.80;;;29.06;40.92
16834;BME280;8533;48.426;10.868;2022-08-01T09:06:27;96374.76;;;28.26;42.17
16834;BME280;8533;48.426;10.868;2022-08-01T09:08:56;96385.25;;;29.21;41.59
16834;BME280;8533;48.426;10.868;2022-08-01T09:11:24;96382.72;;;29.65;40.59
16834;BME280;8533;48.426;10.868;2022-08-01T09:14:14;96380.12;;;29.85;40.29
16834;BME280;8533;48.426;10.868;2022-08-01T09:16:44;96380.23;;;30.31;38.76
16834;BME280;8533;48.426;10.868;2022-08-01T09:19:15;96384.45;;;30.46;38.94
16834;BME280;8533;48.426;10.868;2022-08-01T09:22:00;96383.94;;;30.83;37.34
16834;BME280;8533;48.426;10.868;2022-08-01T09:24:30;96383.78;;;30.86;37.71
16834;BME280;8533;48.426;10.868;2022-08-01T09:26:58;96383.80;;;30.89;37.19
16834;BME280;8533;48.426;10.868;2022-08-01T09:29:29;96386.88;;;31.04;37.07
16834;BME280;8533;48.426;10.868;2022-08-01T09:31:57;96388.69;;;30.77;38.17
16834;BME280;8533;48.426;10.868;2022-08-01T09:34:29;96395.73;;;30.85;37.66
16834;BME280;8533;48.426;10.868;2022-08-01T09:37:01;96385.97;;;30.56;37.65
16834;BME280;8533;48.426;10.868;2022-08-01T09:39:38;96384.19;;;31.45;36.29
16834;BME280;8533;48.426;10.868;2022-08-01T09:44:42;96378.06;;;32.06;35.80
16834;BME280;8533;48.426;10.868;2022-08-01T09:47:11;96385.38;;;32.71;35.34
16834;BME280;8533;48.426;10.868;2022-08-01T09:49:40;96384.45;;;32.87;34.48
16834;BME280;8533;48.426;10.868;2022-08-01T09:52:23;96383.66;;;32.35;35.03
16834;BME280;8533;48.426;10.868;2022-08-01T09:54:56;96381.51;;;32.00;35.36
16834;BME280;8533;48.426;10.868;2022-08-01T09:57:21;96383.84;;;32.01;35.47
16834;BME280;8533;48.426;10.868;2022-08-01T09:59:50;96375.77;;;32.43;34.64
16834;BME280;8533;48.426;10.868;2022-08-01T10:02:33;96380.41;;;32.46;34.24
16834;BME280;8533;48.426;10.868;2022-08-01T10:05:05;96376.92;;;33.01;35.14
16834;BME280;8533;48.426;10.868;2022-08-01T10:07:34;96374.27;;;33.26;33.96
16834;BME280;8533;48.426;10.868;2022-08-01T10:10:13;96373.53;;;33.40;33.53
16834;BME280;8533;48.426;10.868;2022-08-01T10:12:41;96373.08;;;32.53;34.26
16834;BME280;8533;48.426;10.868;2022-08-01T10:15:09;96370.52;;;32.89;34.06
16834;BME280;8533;48.426;10.868;2022-08-01T10:17:39;96369.02;;;32.53;33.98
16834;BME280;8533;48.426;10.868;2022-08-01T10:20:08;96364.22;;;32.64;34.27
16834;BME280;8533;48.426;10.868;2022-08-01T10:22:36;96371.59;;;32.67;34.91
16834;BME280;8533;48.426;10.868;2022-08-01T10:25:05;96367.95;;;32.72;34.02
16834;BME280;8533;48.426;10.868;2022-08-01T10:27:35;96364.55;;;33.11;33.16
16834;BME280;8533;48.426;10.868;2022-08-01T10:30:04;96363.64;;;33.23;33.05
16834;BME280;8533;48.426;10.868;2022-08-01T10:32:35;96355.16;;;32.69;33.88
16834;BME280;8533;48.426;10.868;2022-08-01T10:35:04;96356.69;;;32.67;34.50
16834;BME280;8533;48.426;10.868;2022-08-01T10:37:34;96346.91;;;32.96;33.86
16834;BME280;8533;48.426;10.868;2022-08-01T10:40:02;96349.86;;;33.33;32.95
16834;BME280;8533;48.426;10.868;2022-08-01T10:42:31;96345.40;;;33.59;32.51
16834;BME280;8533;48.426;10.868;2022-08-01T10:44:59;96342.85;;;33.18;32.82
16834;BME280;8533;48.426;10.868;2022-08-01T10:47:40;96340.70;;;32.89;33.86
16834;BME280;8533;48.426;10.868;2022-08-01T10:50:11;96340.66;;;32.23;34.68
16834;BME280;8533;48.426;10.868;2022-08-01T10:52:33;96331.89;;;31.30;35.80
16834;BME280;8533;48.426;10.868;2022-08-01T10:55:08;96339.73;;;31.02;36.57
16834;BME280;8533;48.426;10.868;2022-08-01T10:57:46;96338.80;;;30.67;36.55
16834;BME280;8533;48.426;10.868;2022-08-01T11:00:21;96346.34;;;30.21;37.94
16834;BME280;8533;48.426;10.868;2022-08-01T11:03:01;96335.72;;;29.30;40.03
16834;BME280;8533;48.426;10.868;2022-08-01T11:05:34;96343.17;;;28.33;41.88
16834;BME280;8533;48.426;10.868;2022-08-01T11:08:03;96343.76;;;28.07;42.50
16834;BME280;8533;48.426;10.868;2022-08-01T11:10:39;96337.66;;;27.65;43.66
16834;BME280;8533;48.426;10.868;2022-08-01T11:13:08;96341.98;;;28.21;42.56
16834;BME280;8533;48.426;10.868;2022-08-01T11:15:41;96335.48;;;29.15;40.81
16834;BME280;8533;48.426;10.868;2022-08-01T11:18:29;96332.25;;;30.05;39.47
16834;BME280;8533;48.426;10.868;2022-08-01T11:21:02;96331.95;;;29.57;40.35
16834;BME280;8533;48.426;10.868;2022-08-01T11:23:30;96339.42;;;29.08;41.44
16834;BME280;8533;48.426;10.868;2022-08-01T11:28:32;96337.03;;;28.07;42.93
16834;BME280;8533;48.426;10.868;2022-08-01T11:36:16;96328.17;;;30.18;39.44
16834;BME280;8533;48.426;10.868;2022-08-01T11:38:48;96324.18;;;31.32;36.67
16834;BME280;8533;48.426;10.868;2022-08-01T11:43:57;96327.30;;;30.10;38.20
16834;BME280;8533;48.426;10.868;2022-08-01T11:52:05;96330.08;;;27.87;41.84
16834;BME280;8533;48.426;10.868;2022-08-01T11:54:31;96329.15;;;27.79;42.03
16834;BME280;8533;48.426;10.868;2022-08-01T11:57:02;96329.59;;;27.65;42.47
16834;BME280;8533;48.426;10.868;2022-08-01T12:02:16;96320.64;;;27.36;43.87
16834;BME280;8533;48.426;10.868;2022-08-01T12:04:55;96321.38;;;27.58;44.52
16834;BME280;8533;48.426;10.868;2022-08-01T12:07:23;96319.69;;;28.62;42.37
16834;BME280;8533;48.426;10.868;2022-08-01T12:09:59;96314.52;;;29.64;41.41
16834;BME280;8533;48.426;10.868;2022-08-01T12:12:29;96308.94;;;30.53;39.33
16834;BME280;8533;48.426;10.868;2022-08-01T12:14:59;96309.34;;;30.71;38.69
16834;BME280;8533;48.426;10.868;2022-08-01T12:17:40;96307.39;;;30.89;39.57
16834;BME280;8533;48.426;10.868;2022-08-01T12:20:04;96300.62;;;30.89;38.52
16834;BME280;8533;48.426;10.868;2022-08-01T12:22:32;96292.10;;;31.31;37.18
16834;BME280;8533;48.426;10.868;2022-08-01T12:25:13;96297.59;;;31.41;37.34
16834;BME280;8533;48.426;10.868;2022-08-01T12:27:42;96286.01;;;32.06;35.72
16834;BME280;8533;48.426;10.868;2022-08-01T12:30:15;96286.11;;;32.28;34.99
16834;BME280;8533;48.426;10.868;2022-08-01T12:32:45;96279.91;;;32.90;34.18
16834;BME280;8533;48.426;10.868;2022-08-01T12:35:20;96287.27;;;33.04;34.53
16834;BME280;8533;48.426;10.868;2022-08-01T12:37:48;96283.45;;;31.97;34.83
16834;BME280;8533;48.426;10.868;2022-08-01T12:40:19;96289.89;;;31.43;35.17
16834;BME280;8533;48.426;10.868;2022-08-01T12:42:57;96285.14;;;31.30;36.78
16834;BME280;8533;48.426;10.868;2022-08-01T12:45:33;96287.37;;;30.40;37.24
16834;BME280;8533;48.426;10.868;2022-08-01T12:47:56;96291.98;;;30.06;38.12
16834;BME280;8533;48.426;10.868;2022-08-01T12:50:27;96291.53;;;29.60;38.63
16834;BME280;8533;48.426;10.868;2022-08-01T12:52:56;96291.48;;;29.21;40.08
16834;BME280;8533;48.426;10.868;2022-08-01T12:55:26;96288.95;;;28.96;40.17
16834;BME280;8533;48.426;10.868;2022-08-01T12:58:07;96290.41;;;28.70;40.87
16834;BME280;8533;48.426;10.868;2022-08-01T13:00:35;96284.69;;;28.62;42.09
16834;BME280;8533;48.426;10.868;2022-08-01T13:03:08;96281.70;;;29.22;40.10
16834;BME280;8533;48.426;10.868;2022-08-01T13:05:49;96278.53;;;29.66;40.25
16834;BME280;8533;48.426;10.868;2022-08-01T13:08:18;96272.77;;;29.84;39.47
16834;BME280;8533;48.426;10.868;2022-08-01T13:10:46;96267.28;;;29.90;40.51
16834;BME280;8533;48.426;10.868;2022-08-01T13:13:14;96273.30;;;29.14;40.37
16834;BME280;8533;48.426;10.868;2022-08-01T13:15:43;96268.48;;;28.78;40.17
16834;BME280;8533;48.426;10.868;2022-08-01T13:18:27;96271.42;;;28.31;40.95
16834;BME280;8533;48.426;10.868;2022-08-01T13:23:59;96270.77;;;27.80;42.01
16834;BME280;8533;48.426;10.868;2022-08-01T13:26:11;96268.33;;;27.14;43.62
16834;BME280;8533;48.426;10.868;2022-08-01T13:28:38;96271.30;;;27.19;44.03
16834;BME280;8533;48.426;10.868;2022-08-01T13:31:09;96270.06;;;27.07;43.76
16834;BME280;8533;48.426;10.868;2022-08-01T13:33:43;96273.33;;;27.00;44.39
16834;BME280;8533;48.426;10.868;2022-08-01T13:36:11;96273.19;;;26.87;44.81
16834;BME280;8533;48.426;10.868;2022-08-01T13:38:39;96269.97;;;26.44;44.93
16834;BME280;8533;48.426;10.868;2022-08-01T13:41:24;96279.17;;;26.37;45.99
16834;BME280;8533;48.426;10.868;2022-08-01T13:43:52;96282.78;;;26.35;45.24
16834;BME280;8533;48.426;10.868;2022-08-01T13:46:21;96286.14;;;26.32;45.15
16834;BME280;8533;48.426;10.868;2022-08-01T13:48:48;96283.23;;;26.31;44.75
16834;BME280;8533;48.426;10.868;2022-08-01T13:51:15;96292.85;;;26.19;45.55